Faust — SLKQ — position and weather

sailwx.info

Track history (hours):
 
Tides and Currents Weather Stations Pressure Air Temp Water Temp Dewpoint Dewpoint Depression Visibility Wind Speed Wind Dir Waves Ship Positions

Faust

Last reported at 2015-Mar-02 19:29 UTC. Time now 2015-Mar-06 11:08 UTC.
Position N 31°06' W 081°20'.

Length 227.8 m; beam 32.3 m; draft 9.5 m.

Type: Cargo ship. MMSI: 266260000.

Date/timePositionNaut miles runAvg speedWind from/ knotsBaromVisibWave heightAir tempDewpointWater temp
2015-Mar-02 19:29N 31°06' W 081°20'48011.2
2015-Mar-01 00:29N 37°52' W 076°10'2417.5
2015-Feb-28 23:05N 38°16' W 076°17'2817.6
2015-Feb-28 21:30N 38°43' W 076°26'1616.6
2015-Feb-28 20:33N 38°58' W 076°23'1212.2
2015-Feb-28 19:33N 39°10' W 076°26'7 7.1
2015-Feb-28 18:33N 39°15' W 076°32'0 0.0
2015-Feb-28 17:33N 39°15' W 076°32'0 0.0
2015-Feb-28 16:30N 39°15' W 076°32'0 0.0
2015-Feb-28 15:33N 39°15' W 076°32'0 0.0
2015-Feb-28 14:33N 39°15' W 076°32'0 0.0
2015-Feb-28 13:30N 39°15' W 076°32'0 0.0
2015-Feb-28 12:33N 39°15' W 076°32'0 0.0
2015-Feb-28 11:33N 39°15' W 076°32'0 0.0
2015-Feb-28 10:33N 39°15' W 076°32'0 0.0
2015-Feb-28 09:33N 39°15' W 076°32'0 0.0
2015-Feb-28 08:33N 39°15' W 076°32'0 0.0
2015-Feb-28 07:33N 39°15' W 076°32'0 0.0
2015-Feb-28 06:33N 39°15' W 076°32'0 0.0
2015-Feb-28 05:33N 39°15' W 076°32'0 0.0
2015-Feb-28 04:33N 39°15' W 076°32'0 0.0
2015-Feb-28 03:33N 39°15' W 076°32'0 0.4
2015-Feb-28 02:33N 39°15' W 076°32'7 6.7
2015-Feb-28 01:33N 39°10' W 076°26'1212.4
2015-Feb-28 00:33N 38°58' W 076°23'1615.7
2015-Feb-27 23:33N 38°43' W 076°26'115 6.0
2015-Feb-27 04:26N 39°18' W 074°05'1517.5
2015-Feb-27 03:33N 39°32' W 073°58'1817.4
2015-Feb-27 02:32N 39°49' W 073°51'2016.0
2015-Feb-27 01:18N 40°09' W 073°50'810.1
2015-Feb-27 00:33N 40°16' W 073°49'1510.2
2015-Feb-26 23:04N 40°30' W 073°57'713.0
2015-Feb-26 22:33N 40°36' W 074°02'5 4.7
2015-Feb-26 21:33N 40°40' W 074°04'0 0.0
2015-Feb-26 20:33N 40°40' W 074°04'0 0.0
2015-Feb-26 19:33N 40°40' W 074°04'0 0.0
2015-Feb-26 18:33N 40°40' W 074°04'0 0.0
2015-Feb-26 17:33N 40°40' W 074°04'0 0.0
2015-Feb-26 16:33N 40°40' W 074°04'0 0.0
2015-Feb-26 15:33N 40°40' W 074°04'0 0.0
2015-Feb-26 14:30N 40°40' W 074°04'0 0.0
2015-Feb-26 13:33N 40°40' W 074°04'0 0.0
2015-Feb-26 12:31N 40°40' W 074°04'2 2.3
2015-Feb-26 11:31N 40°38' W 074°04'2 2.5
2015-Feb-26 10:33N 40°39' W 074°06'3 3.1
2015-Feb-26 09:32N 40°42' W 074°08'0 0.2
2015-Feb-26 08:32N 40°42' W 074°09'0 0.0
2015-Feb-26 07:31N 40°42' W 074°09'0 0.0
2015-Feb-26 06:16N 40°42' W 074°09'0 0.0
2015-Feb-26 02:13N 40°42' W 074°09'0 0.0
2015-Feb-26 00:07N 40°42' W 074°09'0 0.0
2015-Feb-25 23:31N 40°42' W 074°09'2 2.2
2015-Feb-25 22:32N 40°40' W 074°09'5 5.2
2015-Feb-25 21:33N 40°37' W 074°03'1210.4
2015-Feb-25 20:25N 40°28' W 073°52'8 6.8
2015-Feb-25 19:14N 40°27' W 073°42'6 8.3
2015-Feb-25 18:29N 40°28' W 073°33'9 9.4
2015-Feb-25 17:32N 40°29' W 073°22'9 9.2
2015-Feb-25 16:33N 40°29' W 073°10'10 9.4
2015-Feb-25 15:27N 40°30' W 072°56'8 9.3
2015-Feb-25 14:33N 40°30' W 072°46'9 9.0
2015-Feb-25 13:33N 40°30' W 072°34'9 8.8
2015-Feb-25 12:33N 40°31' W 072°22'9 8.8
2015-Feb-25 11:33N 40°31' W 072°11'9 8.8
2015-Feb-25 10:33N 40°31' W 071°59'9 8.7
2015-Feb-25 09:33N 40°31' W 071°48'8 8.4
2015-Feb-25 08:33N 40°32' W 071°37'8 7.9
2015-Feb-25 07:33N 40°32' W 071°26'8 8.0
2015-Feb-25 06:33N 40°32' W 071°16'9 8.5
2015-Feb-25 05:32N 40°32' W 071°04'27 8.5
2015-Feb-25 02:20N 40°33' W 070°28'15 8.6
2015-Feb-25 00:33N 40°33' W 070°08'10 9.0
2015-Feb-24 23:29N 40°34' W 069°55'  
Track history (hours):
 
Tides and Currents Weather Stations Pressure Air Temp Water Temp Dewpoint Dewpoint Depression Visibility Wind Speed Wind Dir Waves Ship Positions

Faust

Last reported at 2015-Mar-02 19:29 UTC. Time now 2015-Mar-06 11:08 UTC.
Position N 31°06' W 081°20'.

Length 227.8 m; beam 32.3 m; draft 9.5 m.

Type: Cargo ship. MMSI: 266260000.

Date/timePositionNaut miles runAvg speedWind from/ knotsBaromVisibWave heightAir tempDewpointWater temp
2015-Mar-02 19:29N 31°06' W 081°20'48011.2
2015-Mar-01 00:29N 37°52' W 076°10'2417.5
2015-Feb-28 23:05N 38°16' W 076°17'2817.6
2015-Feb-28 21:30N 38°43' W 076°26'1616.6
2015-Feb-28 20:33N 38°58' W 076°23'1212.2
2015-Feb-28 19:33N 39°10' W 076°26'7 7.1
2015-Feb-28 18:33N 39°15' W 076°32'0 0.0
2015-Feb-28 17:33N 39°15' W 076°32'0 0.0
2015-Feb-28 16:30N 39°15' W 076°32'0 0.0
2015-Feb-28 15:33N 39°15' W 076°32'0 0.0
2015-Feb-28 14:33N 39°15' W 076°32'0 0.0
2015-Feb-28 13:30N 39°15' W 076°32'0 0.0
2015-Feb-28 12:33N 39°15' W 076°32'0 0.0
2015-Feb-28 11:33N 39°15' W 076°32'0 0.0
2015-Feb-28 10:33N 39°15' W 076°32'0 0.0
2015-Feb-28 09:33N 39°15' W 076°32'0 0.0
2015-Feb-28 08:33N 39°15' W 076°32'0 0.0
2015-Feb-28 07:33N 39°15' W 076°32'0 0.0
2015-Feb-28 06:33N 39°15' W 076°32'0 0.0
2015-Feb-28 05:33N 39°15' W 076°32'0 0.0
2015-Feb-28 04:33N 39°15' W 076°32'0 0.0
2015-Feb-28 03:33N 39°15' W 076°32'0 0.4
2015-Feb-28 02:33N 39°15' W 076°32'7 6.7
2015-Feb-28 01:33N 39°10' W 076°26'1212.4
2015-Feb-28 00:33N 38°58' W 076°23'1615.7
2015-Feb-27 23:33N 38°43' W 076°26'115 6.0
2015-Feb-27 04:26N 39°18' W 074°05'1517.5
2015-Feb-27 03:33N 39°32' W 073°58'1817.4
2015-Feb-27 02:32N 39°49' W 073°51'2016.0
2015-Feb-27 01:18N 40°09' W 073°50'810.1
2015-Feb-27 00:33N 40°16' W 073°49'1510.2
2015-Feb-26 23:04N 40°30' W 073°57'713.0
2015-Feb-26 22:33N 40°36' W 074°02'5 4.7
2015-Feb-26 21:33N 40°40' W 074°04'0 0.0
2015-Feb-26 20:33N 40°40' W 074°04'0 0.0
2015-Feb-26 19:33N 40°40' W 074°04'0 0.0
2015-Feb-26 18:33N 40°40' W 074°04'0 0.0
2015-Feb-26 17:33N 40°40' W 074°04'0 0.0
2015-Feb-26 16:33N 40°40' W 074°04'0 0.0
2015-Feb-26 15:33N 40°40' W 074°04'0 0.0
2015-Feb-26 14:30N 40°40' W 074°04'0 0.0
2015-Feb-26 13:33N 40°40' W 074°04'0 0.0
2015-Feb-26 12:31N 40°40' W 074°04'2 2.3
2015-Feb-26 11:31N 40°38' W 074°04'2 2.5
2015-Feb-26 10:33N 40°39' W 074°06'3 3.1
2015-Feb-26 09:32N 40°42' W 074°08'0 0.2
2015-Feb-26 08:32N 40°42' W 074°09'0 0.0
2015-Feb-26 07:31N 40°42' W 074°09'0 0.0
2015-Feb-26 06:16N 40°42' W 074°09'0 0.0
2015-Feb-26 02:13N 40°42' W 074°09'0 0.0
2015-Feb-26 00:07N 40°42' W 074°09'0 0.0
2015-Feb-25 23:31N 40°42' W 074°09'2 2.2
2015-Feb-25 22:32N 40°40' W 074°09'5 5.2
2015-Feb-25 21:33N 40°37' W 074°03'1210.4
2015-Feb-25 20:25N 40°28' W 073°52'8 6.8
2015-Feb-25 19:14N 40°27' W 073°42'6 8.3
2015-Feb-25 18:29N 40°28' W 073°33'9 9.4
2015-Feb-25 17:32N 40°29' W 073°22'9 9.2
2015-Feb-25 16:33N 40°29' W 073°10'10 9.4
2015-Feb-25 15:27N 40°30' W 072°56'8 9.3
2015-Feb-25 14:33N 40°30' W 072°46'9 9.0
2015-Feb-25 13:33N 40°30' W 072°34'9 8.8
2015-Feb-25 12:33N 40°31' W 072°22'9 8.8
2015-Feb-25 11:33N 40°31' W 072°11'9 8.8
2015-Feb-25 10:33N 40°31' W 071°59'9 8.7
2015-Feb-25 09:33N 40°31' W 071°48'8 8.4
2015-Feb-25 08:33N 40°32' W 071°37'8 7.9
2015-Feb-25 07:33N 40°32' W 071°26'8 8.0
2015-Feb-25 06:33N 40°32' W 071°16'9 8.5
2015-Feb-25 05:32N 40°32' W 071°04'27 8.5
2015-Feb-25 02:20N 40°33' W 070°28'15 8.6
2015-Feb-25 00:33N 40°33' W 070°08'10 9.0
2015-Feb-24 23:29N 40°34' W 069°55'  

Dump ship's entire track history